createdAt,value
2023-01-13T00:01:22.814Z,-22.40
2023-01-13T00:04:26.592Z,-22.57
2023-01-13T00:07:31.265Z,-22.56
2023-01-13T00:10:37.116Z,-22.50
2023-01-13T00:13:40.135Z,-22.53
2023-01-13T00:16:43.540Z,-22.43
2023-01-13T00:19:47.627Z,-22.29
2023-01-13T00:22:51.427Z,-22.25
2023-01-13T00:26:00.544Z,-22.37
2023-01-13T00:29:04.659Z,-22.39
2023-01-13T00:32:08.534Z,-22.39
2023-01-13T00:35:12.257Z,-22.33
2023-01-13T00:38:15.602Z,-22.25
2023-01-13T00:41:21.679Z,-22.18
2023-01-13T00:44:26.080Z,-22.20
2023-01-13T00:47:29.867Z,-22.07
2023-01-13T00:50:34.054Z,-22.01
2023-01-13T00:53:39.276Z,-21.98
2023-01-13T00:56:43.163Z,-21.98
2023-01-13T00:59:47.153Z,-21.90
2023-01-13T01:02:51.847Z,-21.83
2023-01-13T01:05:54.938Z,-22.08
2023-01-13T01:08:59.162Z,-22.10
2023-01-13T01:12:02.448Z,-22.36
2023-01-13T01:15:08.413Z,-22.56
2023-01-13T01:18:12.160Z,-22.53
2023-01-13T01:21:16.366Z,-22.30
2023-01-13T01:24:20.317Z,-22.00
2023-01-13T01:27:24.033Z,-22.17
2023-01-13T01:30:28.182Z,-21.80
2023-01-13T01:33:31.875Z,-21.43
2023-01-13T01:36:37.219Z,-21.10
2023-01-13T01:39:40.796Z,-21.24
2023-01-13T01:43:02.947Z,-20.92
2023-01-13T01:46:06.922Z,-20.19
2023-01-13T01:49:16.161Z,-19.63
2023-01-13T01:52:39.311Z,-19.46
2023-01-13T01:55:43.182Z,-19.23
2023-01-13T01:58:50.491Z,-18.55
2023-01-13T02:01:54.522Z,-18.39
2023-01-13T02:04:58.939Z,-18.55
2023-01-13T02:08:03.536Z,-18.72
2023-01-13T02:11:06.823Z,-18.29
2023-01-13T02:14:10.882Z,-17.70
2023-01-13T02:17:44.287Z,-18.09
2023-01-13T02:21:25.371Z,-17.43
2023-01-13T02:24:55.726Z,-17.20
2023-01-13T02:29:10.453Z,-16.15
2023-01-13T02:32:26.927Z,-17.56
2023-01-13T02:35:37.922Z,-19.64
2023-01-13T02:39:02.100Z,-20.54
2023-01-13T02:42:32.668Z,-20.49
2023-01-13T02:45:45.004Z,-20.60
2023-01-13T02:48:51.647Z,-20.50
2023-01-13T02:52:04.490Z,-20.39
2023-01-13T02:55:13.842Z,-20.51
2023-01-13T02:58:22.658Z,-20.50
2023-01-13T03:01:26.866Z,-20.71
2023-01-13T03:04:50.695Z,-20.67
2023-01-13T03:08:22.501Z,-20.48
2023-01-13T03:11:28.744Z,-20.43
2023-01-13T03:14:41.462Z,-20.24
2023-01-13T03:18:07.038Z,-20.53
2023-01-13T03:21:26.811Z,-20.44
2023-01-13T03:24:58.174Z,-20.59
2023-01-13T03:28:07.667Z,-20.53
2023-01-13T03:31:16.821Z,-20.48
2023-01-13T03:34:23.194Z,-20.17
2023-01-13T03:37:33.802Z,-19.90
2023-01-13T03:40:46.545Z,-20.14
2023-01-13T03:44:24.983Z,-20.10
2023-01-13T03:47:36.604Z,-19.88
2023-01-13T03:50:48.745Z,-19.76
2023-01-13T03:54:01.873Z,-19.70
2023-01-13T03:57:12.656Z,-19.68
2023-01-13T04:00:18.122Z,-19.61
2023-01-13T04:03:30.323Z,-19.47
2023-01-13T04:06:41.738Z,-20.01
2023-01-13T04:09:56.453Z,-19.57
2023-01-13T04:13:06.103Z,-19.48
2023-01-13T04:16:12.136Z,-19.93
2023-01-13T04:19:15.687Z,-19.54
2023-01-13T04:22:19.354Z,-19.38
2023-01-13T04:25:23.563Z,-19.53
2023-01-13T04:28:28.023Z,-19.52
2023-01-13T04:31:31.860Z,-19.32
2023-01-13T04:34:35.549Z,-19.33
2023-01-13T04:37:39.668Z,-19.34
2023-01-13T04:40:43.418Z,-19.17
2023-01-13T04:43:47.554Z,-19.30
2023-01-13T04:46:51.232Z,-19.25
2023-01-13T04:49:54.561Z,-18.98
2023-01-13T04:52:58.100Z,-18.76
2023-01-13T04:56:02.133Z,-18.86
2023-01-13T04:59:06.116Z,-18.76
2023-01-13T05:02:09.989Z,-18.65
2023-01-13T05:05:13.712Z,-18.42
2023-01-13T05:08:17.768Z,-18.44
2023-01-13T05:11:43.118Z,-18.25
2023-01-13T05:15:04.648Z,-18.59
2023-01-13T05:18:08.559Z,-18.17
2023-01-13T05:21:31.778Z,-17.97
2023-01-13T05:24:53.042Z,-18.03
2023-01-13T05:27:59.156Z,-18.28
2023-01-13T05:31:02.418Z,-17.97
2023-01-13T05:34:05.936Z,-17.82
2023-01-13T05:37:11.585Z,-17.74
2023-01-13T05:40:35.877Z,-17.30
2023-01-13T05:43:39.214Z,-17.25
2023-01-13T05:46:43.031Z,-17.10
2023-01-13T05:49:46.056Z,-16.87
2023-01-13T05:52:50.215Z,-16.85
2023-01-13T05:55:54.293Z,-16.98
2023-01-13T05:58:58.061Z,-16.69
2023-01-13T06:02:01.722Z,-16.46
2023-01-13T06:05:05.283Z,-16.17
2023-01-13T06:08:10.062Z,-14.61
2023-01-13T06:11:13.804Z,-14.65
2023-01-13T06:14:16.892Z,-14.63
2023-01-13T06:17:20.199Z,-14.03
2023-01-13T06:20:23.356Z,-14.00
2023-01-13T06:23:26.813Z,-13.17
2023-01-13T06:26:32.385Z,-11.44
2023-01-13T06:29:36.447Z,-11.29
2023-01-13T06:32:45.833Z,-10.26
2023-01-13T06:36:00.383Z,-10.87
2023-01-13T06:39:05.026Z,-11.96
2023-01-13T06:42:27.925Z,-12.06
2023-01-13T06:45:31.904Z,-5.76
2023-01-13T06:48:36.280Z,-5.83
2023-01-13T06:51:39.311Z,-2.65
2023-01-13T06:54:43.119Z,-7.65
2023-01-13T06:57:54.513Z,-11.30
2023-01-13T07:01:01.520Z,-13.61
2023-01-13T07:04:05.013Z,-14.09
2023-01-13T07:07:10.702Z,-12.66
2023-01-13T07:10:22.631Z,-9.83
2023-01-13T07:13:45.013Z,-7.96
2023-01-13T07:16:48.700Z,-10.71
2023-01-13T07:19:53.377Z,-12.56
2023-01-13T07:22:57.778Z,-10.26
2023-01-13T07:26:02.015Z,-9.24
2023-01-13T07:29:04.955Z,-9.83
2023-01-13T07:32:09.143Z,-10.44
2023-01-13T07:35:12.178Z,-9.40
2023-01-13T07:38:16.635Z,-9.52
2023-01-13T07:41:38.565Z,-8.73
2023-01-13T07:44:42.377Z,-8.65
2023-01-13T07:47:45.537Z,-10.68
2023-01-13T07:50:49.103Z,-8.67
2023-01-13T07:53:52.866Z,-8.85
2023-01-13T07:56:59.152Z,-11.54
2023-01-13T08:00:04.804Z,-14.18
2023-01-13T08:03:09.228Z,-15.05
2023-01-13T08:06:12.850Z,-15.70
2023-01-13T08:09:15.783Z,-16.29
2023-01-13T08:12:37.853Z,-16.73
2023-01-13T08:15:41.253Z,-17.06
2023-01-13T08:18:45.034Z,-17.40
2023-01-13T08:21:48.359Z,-17.39
2023-01-13T08:24:51.424Z,-17.74
2023-01-13T08:27:56.008Z,-17.80
2023-01-13T08:31:04.267Z,-17.88
2023-01-13T08:34:08.200Z,-18.09
2023-01-13T08:37:11.195Z,-18.48
2023-01-13T08:40:17.009Z,-18.61
2023-01-13T08:43:20.281Z,-18.99
2023-01-13T08:46:23.748Z,-18.96
2023-01-13T08:49:27.576Z,-18.89
2023-01-13T08:52:31.981Z,-18.96
2023-01-13T08:55:35.092Z,-18.99
2023-01-13T08:58:38.427Z,-19.00
2023-01-13T09:01:41.916Z,-18.95
2023-01-13T09:04:45.878Z,-18.79
2023-01-13T09:07:49.619Z,-18.87
2023-01-13T09:10:53.371Z,-18.82
2023-01-13T09:13:56.791Z,-18.94
2023-01-13T09:17:00.477Z,-18.89
2023-01-13T09:20:04.620Z,-19.11
2023-01-13T09:23:10.591Z,-19.25
2023-01-13T09:26:21.126Z,-19.31
2023-01-13T09:29:24.760Z,-19.14
2023-01-13T09:32:28.475Z,-19.20
2023-01-13T09:35:32.528Z,-19.15
2023-01-13T09:38:36.255Z,-19.16
2023-01-13T09:42:04.442Z,-19.33
2023-01-13T09:45:23.332Z,-19.36
2023-01-13T09:48:52.718Z,-19.60
2023-01-13T09:51:59.532Z,-19.47
2023-01-13T09:55:10.200Z,-19.37
2023-01-13T09:58:18.603Z,-19.42
2023-01-13T10:01:36.300Z,-19.28
2023-01-13T10:04:40.150Z,-19.33
2023-01-13T10:07:57.179Z,-19.42
2023-01-13T10:11:22.626Z,-19.34
2023-01-13T10:14:37.714Z,-19.32
2023-01-13T10:18:10.095Z,-19.39
2023-01-13T10:21:32.060Z,-19.45
2023-01-13T10:24:57.860Z,-19.45
2023-01-13T10:28:19.219Z,-19.44
2023-01-13T10:31:24.007Z,-19.46
2023-01-13T10:34:29.655Z,-19.33
2023-01-13T10:37:33.376Z,-19.32
2023-01-13T10:40:47.982Z,-19.35
2023-01-13T10:44:09.419Z,-19.35
2023-01-13T10:47:21.928Z,-19.41
2023-01-13T10:50:30.050Z,-19.39
2023-01-13T10:53:34.334Z,-19.53
2023-01-13T10:56:38.212Z,-19.54
2023-01-13T10:59:41.850Z,-19.50
2023-01-13T11:02:45.599Z,-19.48
2023-01-13T11:05:57.998Z,-19.54
2023-01-13T11:09:01.171Z,-19.52
2023-01-13T11:12:06.032Z,-19.46
2023-01-13T11:15:12.624Z,-19.45
2023-01-13T11:18:44.526Z,-19.40
2023-01-13T11:22:09.681Z,-19.27
2023-01-13T11:25:47.712Z,-19.41
2023-01-13T11:29:21.371Z,-19.47
2023-01-13T11:32:26.063Z,-19.33
2023-01-13T11:35:32.310Z,-19.32
2023-01-13T11:38:56.851Z,-19.35
2023-01-13T11:42:22.674Z,-19.31
2023-01-13T11:45:43.272Z,-19.38
2023-01-13T11:48:46.920Z,-19.39
2023-01-13T11:52:05.558Z,-19.47
2023-01-13T11:55:27.496Z,-19.43
2023-01-13T11:59:04.091Z,-19.43
2023-01-13T12:02:23.312Z,-19.43
2023-01-13T12:05:38.291Z,-19.47
2023-01-13T12:09:01.912Z,-19.48
2023-01-13T12:12:23.356Z,-19.63
2023-01-13T12:15:45.456Z,-19.57
2023-01-13T12:19:12.943Z,-19.61
2023-01-13T12:22:34.703Z,-19.58
2023-01-13T12:25:46.375Z,-19.69
2023-01-13T12:29:16.071Z,-19.66
2023-01-13T12:32:25.206Z,-19.68
2023-01-13T12:35:54.835Z,-19.77
2023-01-13T12:39:22.863Z,-19.70
2023-01-13T12:43:06.960Z,-19.67
2023-01-13T12:46:22.320Z,-19.60
2023-01-13T12:49:29.569Z,-19.57
2023-01-13T12:52:46.486Z,-19.69
2023-01-13T12:55:53.728Z,-19.75
2023-01-13T12:59:30.149Z,-19.73
2023-01-13T13:02:40.339Z,-19.80
2023-01-13T13:06:15.359Z,-19.66
2023-01-13T13:09:38.169Z,-19.57
2023-01-13T13:13:00.868Z,-19.58
2023-01-13T13:16:36.692Z,-19.75
2023-01-13T13:19:41.686Z,-19.92
2023-01-13T13:22:51.869Z,-19.90
2023-01-13T13:26:17.288Z,-19.88
2023-01-13T13:29:36.036Z,-19.86
2023-01-13T13:33:16.277Z,-19.88
2023-01-13T13:36:40.333Z,-19.77
2023-01-13T13:40:04.445Z,-19.86
2023-01-13T13:43:32.477Z,-19.93
2023-01-13T13:46:49.736Z,-19.90
2023-01-13T13:49:55.039Z,-19.94
2023-01-13T13:53:08.036Z,-19.97
2023-01-13T13:56:22.101Z,-19.95
2023-01-13T13:59:31.094Z,-19.94
2023-01-13T14:02:37.618Z,-19.89
2023-01-13T14:05:41.583Z,-19.89
2023-01-13T14:08:50.830Z,-19.83
2023-01-13T14:12:16.131Z,-19.88
2023-01-13T14:15:36.152Z,-19.84
2023-01-13T14:18:46.359Z,-19.95
2023-01-13T14:21:49.473Z,-20.07
2023-01-13T14:24:58.080Z,-20.01
2023-01-13T14:28:22.397Z,-20.02
2023-01-13T14:31:25.822Z,-19.94
2023-01-13T14:34:32.936Z,-19.84
2023-01-13T14:37:40.559Z,-19.79
2023-01-13T14:40:46.099Z,-19.85
2023-01-13T14:43:51.392Z,-19.94
2023-01-13T14:46:57.137Z,-20.00
2023-01-13T14:50:08.419Z,-20.02
2023-01-13T14:53:39.287Z,-19.98
2023-01-13T14:56:52.307Z,-20.01
2023-01-13T15:00:08.484Z,-19.94
2023-01-13T15:03:16.132Z,-19.89
2023-01-13T15:06:24.885Z,-19.85
2023-01-13T15:09:42.530Z,-19.85
2023-01-13T15:12:50.439Z,-19.92
2023-01-13T15:15:56.048Z,-19.99
2023-01-13T15:18:59.959Z,-19.98
2023-01-13T15:22:03.082Z,-19.99
2023-01-13T15:25:06.755Z,-19.97
2023-01-13T15:28:21.853Z,-19.93
2023-01-13T15:31:27.628Z,-19.84
2023-01-13T15:34:30.964Z,-19.78
2023-01-13T15:37:34.896Z,-19.93
2023-01-13T15:40:38.657Z,-20.00
2023-01-13T15:44:00.215Z,-20.08
2023-01-13T15:47:07.097Z,-20.06
2023-01-13T15:50:19.836Z,-19.97
2023-01-13T15:53:24.686Z,-20.05
2023-01-13T15:56:27.844Z,-20.00
2023-01-13T15:59:32.053Z,-20.01
2023-01-13T16:02:35.940Z,-19.96
2023-01-13T16:05:40.940Z,-19.91
2023-01-13T16:08:44.711Z,-20.00
2023-01-13T16:11:48.832Z,-20.04
2023-01-13T16:14:52.659Z,-19.95
2023-01-13T16:17:59.367Z,-20.13
2023-01-13T16:21:03.177Z,-20.11
2023-01-13T16:24:07.344Z,-20.13
2023-01-13T16:27:37.563Z,-19.98
2023-01-13T16:30:40.993Z,-20.02
2023-01-13T16:33:44.144Z,-20.11
2023-01-13T16:36:47.913Z,-20.10
2023-01-13T16:39:51.129Z,-20.07
2023-01-13T16:42:54.286Z,-20.07
2023-01-13T16:45:57.486Z,-20.05
2023-01-13T16:49:04.971Z,-20.16
2023-01-13T16:52:08.914Z,-20.28
2023-01-13T16:55:12.589Z,-20.19
2023-01-13T16:58:19.672Z,-20.16
2023-01-13T17:01:31.571Z,-20.16
2023-01-13T17:04:35.248Z,-20.15
2023-01-13T17:07:39.139Z,-20.18
2023-01-13T17:10:43.360Z,-20.35
2023-01-13T17:13:46.471Z,-20.44
2023-01-13T17:16:51.960Z,-20.41
2023-01-13T17:19:55.881Z,-20.47
2023-01-13T17:22:59.256Z,-20.40
2023-01-13T17:26:02.273Z,-20.34
2023-01-13T17:29:07.330Z,-20.32
2023-01-13T17:32:16.698Z,-20.31
2023-01-13T17:35:25.506Z,-20.40
2023-01-13T17:38:29.250Z,-20.52
2023-01-13T17:41:32.905Z,-20.49
2023-01-13T17:44:36.673Z,-20.57
2023-01-13T17:47:40.693Z,-20.45
2023-01-13T17:50:48.421Z,-20.49
2023-01-13T17:53:54.444Z,-20.52
2023-01-13T17:56:57.552Z,-20.48
2023-01-13T18:00:01.749Z,-20.56
2023-01-13T18:03:18.427Z,-20.62
2023-01-13T18:06:24.053Z,-20.53
2023-01-13T18:09:27.323Z,-20.47
2023-01-13T18:12:30.397Z,-20.48
2023-01-13T18:15:33.802Z,-20.47
2023-01-13T18:18:37.874Z,-20.43
2023-01-13T18:21:59.468Z,-20.53
2023-01-13T18:25:22.124Z,-20.57
2023-01-13T18:28:25.223Z,-20.53
2023-01-13T18:31:29.332Z,-20.55
2023-01-13T18:34:32.399Z,-20.58
2023-01-13T18:37:36.622Z,-20.56
2023-01-13T18:40:39.640Z,-20.53
2023-01-13T18:43:42.934Z,-20.46
2023-01-13T18:46:46.069Z,-20.48
2023-01-13T18:49:49.431Z,-20.53
2023-01-13T18:52:53.513Z,-20.60
2023-01-13T18:55:56.945Z,-20.58
2023-01-13T18:59:02.216Z,-20.52
2023-01-13T19:02:09.982Z,-20.58
2023-01-13T19:05:14.796Z,-20.61
2023-01-13T19:08:18.110Z,-20.77
2023-01-13T19:11:22.804Z,-20.84
2023-01-13T19:14:36.290Z,-20.94
2023-01-13T19:17:39.636Z,-20.84
2023-01-13T19:20:44.836Z,-20.86
2023-01-13T19:23:48.012Z,-20.90
2023-01-13T19:26:51.393Z,-20.92
2023-01-13T19:29:58.687Z,-20.81
2023-01-13T19:33:02.484Z,-20.70
2023-01-13T19:36:06.834Z,-20.71
2023-01-13T19:39:11.089Z,-20.75
2023-01-13T19:42:32.937Z,-20.80
2023-01-13T19:45:36.869Z,-20.83
2023-01-13T19:48:40.768Z,-20.69
2023-01-13T19:51:44.327Z,-20.79
2023-01-13T19:54:48.120Z,-20.86
2023-01-13T19:57:51.460Z,-20.80
2023-01-13T20:00:55.740Z,-20.88
2023-01-13T20:04:04.199Z,-20.69
2023-01-13T20:07:08.239Z,-20.64
2023-01-13T20:10:14.085Z,-20.76
2023-01-13T20:13:17.858Z,-20.91
2023-01-13T20:16:21.221Z,-20.91
2023-01-13T20:19:24.609Z,-21.01
2023-01-13T20:22:27.638Z,-21.04
2023-01-13T20:25:31.103Z,-21.14
2023-01-13T20:28:38.016Z,-21.08
2023-01-13T20:31:41.763Z,-21.17
2023-01-13T20:34:45.167Z,-21.03
2023-01-13T20:37:48.866Z,-21.23
2023-01-13T20:41:22.427Z,-21.15
2023-01-13T20:44:25.569Z,-21.29
2023-01-13T20:47:30.133Z,-21.30
2023-01-13T20:50:33.973Z,-21.36
2023-01-13T20:53:37.809Z,-21.27
2023-01-13T20:56:41.580Z,-21.27
2023-01-13T20:59:44.998Z,-21.31
2023-01-13T21:02:48.119Z,-21.33
2023-01-13T21:05:51.398Z,-21.28
2023-01-13T21:08:55.350Z,-21.39
2023-01-13T21:12:17.178Z,-21.51
2023-01-13T21:15:22.401Z,-21.36
2023-01-13T21:18:44.567Z,-21.35
2023-01-13T21:21:47.850Z,-21.31
2023-01-13T21:24:51.407Z,-21.36
2023-01-13T21:27:56.004Z,-21.44
2023-01-13T21:31:09.617Z,-21.39
2023-01-13T21:34:13.445Z,-21.45
2023-01-13T21:37:18.465Z,-21.49
2023-01-13T21:40:23.216Z,-21.47
2023-01-13T21:43:44.729Z,-21.39
2023-01-13T21:47:06.030Z,-21.38
2023-01-13T21:50:11.763Z,-21.44
2023-01-13T21:53:14.807Z,-21.53
2023-01-13T21:56:18.349Z,-21.64
2023-01-13T21:59:22.028Z,-21.73
2023-01-13T22:02:36.674Z,-21.73
2023-01-13T22:05:40.820Z,-21.79
2023-01-13T22:08:45.216Z,-21.94
2023-01-13T22:11:48.282Z,-21.73
2023-01-13T22:14:55.364Z,-21.65
2023-01-13T22:17:58.416Z,-21.64
2023-01-13T22:21:02.275Z,-21.52
2023-01-13T22:24:06.327Z,-21.58
2023-01-13T22:27:12.082Z,-21.55
2023-01-13T22:30:18.719Z,-21.49
2023-01-13T22:33:21.725Z,-21.52
2023-01-13T22:36:24.882Z,-21.61
2023-01-13T22:39:28.018Z,-21.58
2023-01-13T22:42:31.245Z,-21.67
2023-01-13T22:45:35.111Z,-21.80
2023-01-13T22:48:39.859Z,-21.92
2023-01-13T22:51:44.094Z,-21.97
2023-01-13T22:54:47.843Z,-21.92
2023-01-13T22:57:51.368Z,-21.88
2023-01-13T23:00:55.599Z,-22.05
2023-01-13T23:04:00.431Z,-22.06
2023-01-13T23:07:03.560Z,-22.13
2023-01-13T23:10:07.264Z,-22.27
2023-01-13T23:13:10.733Z,-22.25
2023-01-13T23:16:18.121Z,-22.33
2023-01-13T23:19:21.790Z,-22.43
2023-01-13T23:22:25.138Z,-22.57
2023-01-13T23:25:28.596Z,-22.77
2023-01-13T23:28:34.456Z,-22.99
2023-01-13T23:31:39.133Z,-23.04
2023-01-13T23:34:42.092Z,-23.12
2023-01-13T23:37:45.439Z,-22.86
2023-01-13T23:40:48.506Z,-22.80
2023-01-13T23:44:00.534Z,-22.78
2023-01-13T23:47:04.257Z,-22.72
2023-01-13T23:50:08.531Z,-22.73
2023-01-13T23:53:12.163Z,-22.81
2023-01-13T23:56:18.191Z,-22.72
2023-01-13T23:59:21.723Z,-22.78
